createdAt,value
2022-07-29T00:00:47.573Z,0.00
2022-07-29T00:01:47.313Z,0.00
2022-07-29T00:02:47.677Z,0.00
2022-07-29T00:03:47.393Z,0.00
2022-07-29T00:04:47.574Z,0.00
2022-07-29T00:06:09.325Z,0.00
2022-07-29T00:06:47.123Z,0.00
2022-07-29T00:07:47.384Z,0.00
2022-07-29T00:08:47.651Z,0.00
2022-07-29T00:09:52.023Z,0.00
2022-07-29T00:10:48.140Z,0.00
2022-07-29T00:11:47.378Z,0.00
2022-07-29T00:12:47.138Z,0.00
2022-07-29T00:13:50.920Z,0.00
2022-07-29T00:14:47.131Z,0.00
2022-07-29T00:16:09.483Z,0.00
2022-07-29T00:16:46.613Z,0.00
2022-07-29T00:17:47.262Z,0.00
2022-07-29T00:18:46.997Z,0.00
2022-07-29T00:19:47.235Z,0.00
2022-07-29T00:20:46.977Z,0.00
2022-07-29T00:21:47.216Z,0.00
2022-07-29T00:22:46.946Z,0.00
2022-07-29T00:23:47.197Z,0.00
2022-07-29T00:24:46.927Z,0.00
2022-07-29T00:26:07.965Z,0.00
2022-07-29T00:26:47.031Z,0.00
2022-07-29T00:27:47.258Z,0.00
2022-07-29T00:28:47.001Z,0.00
2022-07-29T00:29:47.243Z,0.00
2022-07-29T00:30:47.019Z,0.00
2022-07-29T00:31:47.309Z,0.00
2022-07-29T00:32:46.953Z,0.00
2022-07-29T00:33:47.200Z,0.00
2022-07-29T00:34:46.932Z,0.00
2022-07-29T00:36:09.180Z,0.00
2022-07-29T00:36:46.970Z,0.00
2022-07-29T00:37:47.210Z,0.00
2022-07-29T00:38:46.941Z,0.00
2022-07-29T00:39:47.175Z,0.00
2022-07-29T00:40:46.916Z,0.00
2022-07-29T00:41:47.138Z,0.00
2022-07-29T00:42:46.883Z,0.00
2022-07-29T00:43:47.150Z,0.00
2022-07-29T00:44:46.892Z,0.00
2022-07-29T00:46:09.135Z,0.00
2022-07-29T00:46:46.971Z,0.00
2022-07-29T00:47:47.164Z,0.00
2022-07-29T00:48:49.030Z,0.00
2022-07-29T00:49:47.801Z,0.00
2022-07-29T00:50:49.073Z,0.00
2022-07-29T00:51:48.847Z,0.00
2022-07-29T00:52:47.652Z,0.00
2022-07-29T00:53:49.000Z,0.00
2022-07-29T00:54:48.776Z,0.00
2022-07-29T00:56:07.086Z,0.00
2022-07-29T00:56:48.808Z,0.00
2022-07-29T00:57:48.658Z,0.00
2022-07-29T00:58:48.931Z,0.00
2022-07-29T00:59:48.218Z,0.00
2022-07-29T01:00:49.095Z,0.00
2022-07-29T01:01:47.880Z,0.00
2022-07-29T01:02:48.680Z,0.00
2022-07-29T01:03:48.966Z,0.00
2022-07-29T01:04:47.750Z,0.00
2022-07-29T01:06:06.567Z,0.00
2022-07-29T01:06:48.793Z,0.00
2022-07-29T01:07:47.602Z,0.00
2022-07-29T01:08:48.885Z,0.00
2022-07-29T01:09:48.744Z,0.00
2022-07-29T01:10:48.530Z,0.00
2022-07-29T01:11:48.826Z,0.00
2022-07-29T01:12:47.672Z,0.00
2022-07-29T01:13:48.453Z,0.00
2022-07-29T01:14:48.814Z,0.00
2022-07-29T01:16:06.622Z,0.00
2022-07-29T01:16:48.837Z,0.00
2022-07-29T01:17:53.207Z,0.00
2022-07-29T01:18:47.476Z,0.00
2022-07-29T01:19:48.735Z,0.00
2022-07-29T01:20:48.516Z,0.00
2022-07-29T01:21:48.794Z,0.00
2022-07-29T01:22:48.591Z,0.00
2022-07-29T01:23:48.396Z,0.00
2022-07-29T01:24:47.467Z,0.00
2022-07-29T01:26:06.552Z,0.00
2022-07-29T01:26:48.554Z,0.00
2022-07-29T01:27:48.680Z,0.00
2022-07-29T01:28:48.459Z,0.00
2022-07-29T01:29:48.253Z,0.00
2022-07-29T01:30:47.573Z,0.00
2022-07-29T01:31:58.508Z,0.00
2022-07-29T01:32:49.628Z,0.00
2022-07-29T01:33:48.530Z,0.00
2022-07-29T01:34:48.494Z,0.00
2022-07-29T01:36:06.671Z,0.00
2022-07-29T01:36:48.419Z,0.00
2022-07-29T01:37:47.226Z,0.00
2022-07-29T01:38:48.524Z,0.00
2022-07-29T01:39:48.339Z,0.00
2022-07-29T01:40:48.210Z,0.00
2022-07-29T01:41:47.528Z,0.00
2022-07-29T01:42:48.453Z,0.00
2022-07-29T01:43:48.380Z,0.00
2022-07-29T01:44:48.269Z,0.00
2022-07-29T01:46:06.582Z,0.00
2022-07-29T01:46:47.063Z,0.00
2022-07-29T01:47:47.618Z,0.00
2022-07-29T01:48:48.591Z,0.00
2022-07-29T01:49:48.399Z,0.00
2022-07-29T01:50:48.229Z,0.00
2022-07-29T01:51:48.515Z,0.00
2022-07-29T01:52:47.333Z,0.00
2022-07-29T01:53:48.163Z,0.00
2022-07-29T01:54:48.440Z,0.00
2022-07-29T01:56:06.347Z,0.00
2022-07-29T01:56:48.033Z,0.00
2022-07-29T01:57:47.877Z,0.00
2022-07-29T01:58:47.009Z,0.00
2022-07-29T01:59:48.072Z,0.00
2022-07-29T02:00:48.411Z,0.00
2022-07-29T02:01:48.224Z,0.00
2022-07-29T02:02:46.688Z,0.00
2022-07-29T02:03:47.004Z,0.00
2022-07-29T02:04:47.776Z,0.00
2022-07-29T02:06:06.106Z,0.00
2022-07-29T02:06:47.826Z,0.00
2022-07-29T02:07:48.143Z,0.00
2022-07-29T02:08:47.473Z,0.00
2022-07-29T02:09:47.003Z,0.00
2022-07-29T02:10:48.144Z,0.00
2022-07-29T02:11:47.535Z,0.00
2022-07-29T02:12:50.866Z,0.00
2022-07-29T02:13:48.207Z,0.00
2022-07-29T02:14:47.117Z,0.00
2022-07-29T02:16:06.003Z,0.00
2022-07-29T02:16:48.195Z,0.00
2022-07-29T02:17:47.967Z,0.00
2022-07-29T02:18:47.366Z,0.00
2022-07-29T02:19:48.196Z,0.00
2022-07-29T02:20:47.585Z,0.00
2022-07-29T02:21:46.498Z,0.00
2022-07-29T02:22:47.226Z,0.00
2022-07-29T02:23:50.795Z,0.00
2022-07-29T02:24:47.358Z,0.00
2022-07-29T02:26:06.227Z,0.00
2022-07-29T02:26:47.441Z,0.00
2022-07-29T02:27:46.830Z,0.00
2022-07-29T02:28:47.658Z,0.00
2022-07-29T02:29:48.060Z,0.00
2022-07-29T02:30:47.922Z,0.00
2022-07-29T02:31:47.200Z,0.00
2022-07-29T02:32:47.995Z,0.00
2022-07-29T02:33:46.814Z,0.00
2022-07-29T02:34:47.648Z,0.00
2022-07-29T02:36:05.968Z,0.00
2022-07-29T02:36:49.413Z,0.00
2022-07-29T02:37:47.983Z,0.00
2022-07-29T02:38:47.755Z,0.00
2022-07-29T02:39:45.651Z,0.00
2022-07-29T02:40:47.822Z,0.00
2022-07-29T02:41:47.626Z,0.00
2022-07-29T02:42:47.981Z,0.00
2022-07-29T02:43:47.766Z,0.00
2022-07-29T02:44:47.536Z,0.00
2022-07-29T02:46:05.919Z,0.00
2022-07-29T02:46:48.076Z,0.00
2022-07-29T02:47:47.704Z,0.00
2022-07-29T02:48:47.534Z,0.00
2022-07-29T02:49:47.791Z,0.00
2022-07-29T02:50:47.763Z,0.00
2022-07-29T02:51:46.214Z,0.00
2022-07-29T02:52:47.777Z,0.00
2022-07-29T02:53:47.575Z,0.00
2022-07-29T02:54:47.351Z,0.00
2022-07-29T02:56:05.670Z,0.00
2022-07-29T02:56:47.382Z,0.00
2022-07-29T02:57:54.849Z,0.00
2022-07-29T02:58:48.572Z,0.00
2022-07-29T02:59:47.344Z,0.00
2022-07-29T03:00:47.636Z,0.00
2022-07-29T03:01:47.563Z,0.00
2022-07-29T03:02:47.316Z,0.00
2022-07-29T03:03:46.032Z,0.00
2022-07-29T03:04:47.450Z,0.00
2022-07-29T03:06:05.732Z,0.00
2022-07-29T03:06:47.583Z,0.00
2022-07-29T03:07:47.364Z,0.00
2022-07-29T03:08:46.656Z,0.00
2022-07-29T03:09:47.437Z,0.00
2022-07-29T03:10:47.235Z,0.00
2022-07-29T03:11:50.564Z,0.00
2022-07-29T03:12:47.357Z,0.00
2022-07-29T03:13:47.686Z,0.00
2022-07-29T03:14:46.037Z,0.00
2022-07-29T03:16:05.334Z,0.00
2022-07-29T03:16:47.540Z,0.00
2022-07-29T03:17:47.373Z,0.00
2022-07-29T03:18:47.150Z,0.00
2022-07-29T03:19:46.029Z,0.00
2022-07-29T03:20:46.030Z,0.00
2022-07-29T03:21:47.520Z,0.00
2022-07-29T03:22:47.443Z,0.00
2022-07-29T03:23:47.218Z,0.00
2022-07-29T03:24:47.362Z,0.00
2022-07-29T03:26:05.340Z,0.00
2022-07-29T03:26:47.069Z,0.00
2022-07-29T03:27:47.339Z,0.00
2022-07-29T03:28:47.210Z,0.00
2022-07-29T03:29:49.642Z,0.00
2022-07-29T03:30:47.348Z,0.00
2022-07-29T03:31:47.098Z,0.00
2022-07-29T03:32:47.394Z,0.00
2022-07-29T03:33:47.254Z,0.00
2022-07-29T03:34:45.763Z,0.00
2022-07-29T03:36:05.355Z,0.00
2022-07-29T03:36:46.048Z,0.00
2022-07-29T03:37:46.389Z,0.00
2022-07-29T03:38:46.797Z,0.00
2022-07-29T03:39:47.074Z,0.00
2022-07-29T03:40:46.855Z,0.00
2022-07-29T03:41:47.143Z,0.00
2022-07-29T03:42:45.955Z,0.00
2022-07-29T03:43:49.064Z,0.00
2022-07-29T03:44:47.095Z,0.00
2022-07-29T03:46:04.930Z,0.00
2022-07-29T03:46:47.174Z,0.00
2022-07-29T03:47:50.909Z,0.00
2022-07-29T03:48:47.322Z,0.00
2022-07-29T03:49:45.781Z,0.00
2022-07-29T03:50:46.830Z,0.00
2022-07-29T03:51:47.126Z,0.00
2022-07-29T03:52:46.926Z,0.00
2022-07-29T03:53:45.121Z,0.00
2022-07-29T03:54:47.127Z,0.00
2022-07-29T03:56:04.936Z,0.00
2022-07-29T03:56:47.144Z,0.00
2022-07-29T03:57:46.937Z,0.00
2022-07-29T03:58:46.721Z,0.00
2022-07-29T03:59:47.019Z,0.00
2022-07-29T04:00:45.538Z,0.00
2022-07-29T04:01:46.217Z,0.00
2022-07-29T04:02:46.472Z,0.00
2022-07-29T04:03:46.992Z,0.00
2022-07-29T04:04:46.621Z,0.00
2022-07-29T04:06:04.923Z,0.00
2022-07-29T04:06:46.622Z,0.00
2022-07-29T04:07:45.912Z,0.00
2022-07-29T04:08:44.979Z,0.00
2022-07-29T04:09:46.628Z,0.00
2022-07-29T04:10:46.884Z,0.00
2022-07-29T04:12:02.454Z,0.00
2022-07-29T04:12:46.988Z,0.00
2022-07-29T04:13:45.777Z,0.00
2022-07-29T04:14:46.574Z,0.00
2022-07-29T04:16:05.030Z,0.00
2022-07-29T04:16:46.604Z,0.00
2022-07-29T04:17:46.884Z,0.00
2022-07-29T04:18:45.690Z,0.00
2022-07-29T04:19:46.568Z,0.00
2022-07-29T04:20:46.865Z,0.00
2022-07-29T04:21:46.634Z,0.00
2022-07-29T04:22:45.160Z,5.62
2022-07-29T04:23:52.971Z,5.62
2022-07-29T04:24:47.604Z,5.62
2022-07-29T04:26:04.908Z,5.62
2022-07-29T04:26:46.648Z,5.62
2022-07-29T04:27:46.442Z,5.62
2022-07-29T04:28:46.728Z,5.62
2022-07-29T04:29:57.138Z,5.62
2022-07-29T04:30:46.875Z,5.62
2022-07-29T04:31:46.717Z,5.62
2022-07-29T04:32:46.450Z,5.62
2022-07-29T04:33:45.477Z,5.62
2022-07-29T04:34:46.602Z,5.62
2022-07-29T04:36:04.431Z,5.62
2022-07-29T04:36:46.265Z,5.62
2022-07-29T04:37:46.555Z,5.62
2022-07-29T04:38:46.360Z,5.62
2022-07-29T04:39:46.645Z,5.62
2022-07-29T04:40:44.734Z,5.62
2022-07-29T04:41:45.351Z,5.62
2022-07-29T04:42:47.837Z,5.62
2022-07-29T04:43:46.441Z,5.62
2022-07-29T04:44:46.225Z,5.62
2022-07-29T04:46:04.580Z,5.62
2022-07-29T04:46:46.379Z,5.62
2022-07-29T04:47:45.638Z,5.62
2022-07-29T04:48:45.245Z,5.62
2022-07-29T04:49:46.316Z,5.62
2022-07-29T04:50:46.585Z,5.62
2022-07-29T04:51:46.359Z,5.62
2022-07-29T04:52:46.135Z,5.62
2022-07-29T04:53:46.414Z,5.62
2022-07-29T04:54:46.218Z,5.62
2022-07-29T04:56:04.528Z,5.62
2022-07-29T04:56:46.246Z,5.62
2022-07-29T04:57:46.086Z,5.62
2022-07-29T04:58:45.356Z,5.62
2022-07-29T04:59:46.157Z,5.62
2022-07-29T05:00:45.165Z,5.62
2022-07-29T05:01:46.316Z,5.62
2022-07-29T05:02:46.097Z,5.62
2022-07-29T05:03:45.397Z,5.62
2022-07-29T05:04:45.181Z,5.62
2022-07-29T05:06:04.524Z,5.62
2022-07-29T05:06:46.247Z,5.62
2022-07-29T05:07:46.079Z,5.62
2022-07-29T05:08:48.473Z,11.25
2022-07-29T05:09:45.220Z,11.25
2022-07-29T05:10:45.155Z,11.25
2022-07-29T05:11:44.630Z,11.25
2022-07-29T05:12:46.175Z,11.25
2022-07-29T05:13:45.916Z,11.25
2022-07-29T05:14:44.255Z,11.25
2022-07-29T05:16:04.071Z,11.25
2022-07-29T05:16:44.274Z,11.25
2022-07-29T05:17:43.964Z,11.25
2022-07-29T05:18:44.202Z,16.88
2022-07-29T05:19:43.956Z,16.88
2022-07-29T05:20:44.199Z,16.88
2022-07-29T05:21:43.933Z,16.88
2022-07-29T05:22:44.187Z,16.88
2022-07-29T05:23:43.921Z,16.88
2022-07-29T05:24:44.174Z,16.88
2022-07-29T05:26:03.964Z,16.88
2022-07-29T05:26:46.200Z,16.88
2022-07-29T05:27:43.944Z,16.88
2022-07-29T05:28:44.174Z,16.88
2022-07-29T05:29:45.850Z,16.88
2022-07-29T05:30:44.207Z,22.50
2022-07-29T05:31:43.904Z,22.50
2022-07-29T05:32:44.173Z,22.50
2022-07-29T05:33:43.904Z,22.50
2022-07-29T05:34:51.000Z,22.50
2022-07-29T05:36:06.856Z,22.50
2022-07-29T05:36:43.641Z,22.50
2022-07-29T05:37:43.886Z,22.50
2022-07-29T05:38:43.640Z,22.50
2022-07-29T05:39:48.545Z,28.12
2022-07-29T05:40:44.629Z,28.12
2022-07-29T05:41:46.627Z,28.12
2022-07-29T05:42:44.591Z,28.12
2022-07-29T05:43:43.851Z,28.12
2022-07-29T05:44:43.588Z,33.75
2022-07-29T05:46:04.666Z,33.75
2022-07-29T05:46:43.645Z,33.75
2022-07-29T05:47:43.812Z,33.75
2022-07-29T05:48:43.621Z,33.75
2022-07-29T05:49:43.821Z,33.75
2022-07-29T05:50:44.166Z,33.75
2022-07-29T05:51:43.805Z,33.75
2022-07-29T05:52:43.550Z,33.75
2022-07-29T05:53:43.802Z,33.75
2022-07-29T05:54:43.534Z,28.12
2022-07-29T05:56:03.792Z,28.12
2022-07-29T05:56:43.522Z,28.12
2022-07-29T05:57:43.773Z,28.12
2022-07-29T05:58:43.567Z,28.12
2022-07-29T05:59:43.822Z,28.12
2022-07-29T06:00:43.552Z,28.12
2022-07-29T06:01:43.832Z,28.12
2022-07-29T06:02:43.546Z,28.12
2022-07-29T06:03:43.774Z,28.12
2022-07-29T06:04:43.590Z,28.12
2022-07-29T06:06:03.845Z,28.12
2022-07-29T06:06:43.536Z,28.12
2022-07-29T06:07:50.116Z,28.12
2022-07-29T06:08:45.052Z,28.12
2022-07-29T06:09:43.805Z,28.12
2022-07-29T06:10:43.613Z,28.12
2022-07-29T06:11:45.437Z,28.12
2022-07-29T06:12:43.718Z,28.12
2022-07-29T06:13:43.559Z,28.12
2022-07-29T06:14:43.912Z,28.12
2022-07-29T06:16:03.748Z,33.75
2022-07-29T06:16:43.573Z,33.75
2022-07-29T06:18:00.113Z,33.75
2022-07-29T06:18:44.489Z,33.75
2022-07-29T06:19:43.224Z,33.75
2022-07-29T06:20:45.512Z,39.38
2022-07-29T06:21:43.276Z,39.38
2022-07-29T06:22:43.520Z,39.38
2022-07-29T06:23:43.329Z,45.00
2022-07-29T06:24:43.575Z,45.00
2022-07-29T06:26:03.362Z,45.00
2022-07-29T06:26:43.587Z,45.00
2022-07-29T06:27:43.382Z,50.62
2022-07-29T06:28:43.680Z,50.62
2022-07-29T06:29:45.454Z,50.62
2022-07-29T06:30:43.308Z,56.25
2022-07-29T06:31:44.390Z,61.88
2022-07-29T06:32:43.334Z,61.88
2022-07-29T06:33:42.581Z,67.50
2022-07-29T06:34:42.536Z,67.50
2022-07-29T06:36:02.574Z,67.50
2022-07-29T06:36:42.529Z,67.50
2022-07-29T06:37:42.550Z,73.12
2022-07-29T06:38:49.218Z,73.12
2022-07-29T06:39:43.467Z,73.12
2022-07-29T06:40:42.471Z,73.12
2022-07-29T06:41:42.484Z,78.75
2022-07-29T06:42:42.476Z,78.75
2022-07-29T06:43:51.943Z,73.12
2022-07-29T06:44:43.491Z,78.75
2022-07-29T06:46:02.570Z,84.38
2022-07-29T06:46:42.595Z,84.38
2022-07-29T06:47:43.201Z,90.00
2022-07-29T06:48:42.964Z,95.62
2022-07-29T06:49:43.189Z,106.88
2022-07-29T06:50:42.962Z,112.50
2022-07-29T06:51:43.186Z,118.12
2022-07-29T06:52:43.124Z,123.75
2022-07-29T06:53:59.447Z,135.00
2022-07-29T06:54:44.129Z,135.00
2022-07-29T06:56:02.888Z,146.25
2022-07-29T06:56:43.122Z,151.88
2022-07-29T06:57:42.848Z,157.50
2022-07-29T06:58:43.088Z,168.75
2022-07-29T06:59:42.856Z,180.00
2022-07-29T07:00:43.085Z,191.25
2022-07-29T07:01:42.937Z,191.25
2022-07-29T07:02:43.160Z,230.62
2022-07-29T07:03:42.829Z,241.88
2022-07-29T07:04:43.062Z,264.38
2022-07-29T07:06:02.822Z,275.62
2022-07-29T07:06:43.071Z,247.50
2022-07-29T07:07:42.790Z,270.00
2022-07-29T07:08:43.047Z,247.50
2022-07-29T07:09:43.745Z,275.62
2022-07-29T07:10:43.032Z,270.00
2022-07-29T07:11:42.782Z,270.00
2022-07-29T07:12:43.039Z,270.00
2022-07-29T07:13:42.775Z,270.00
2022-07-29T07:14:43.027Z,281.25
2022-07-29T07:16:02.788Z,270.00
2022-07-29T07:16:43.096Z,270.00
2022-07-29T07:17:42.764Z,264.38
2022-07-29T07:18:43.017Z,264.38
2022-07-29T07:19:42.771Z,258.75
2022-07-29T07:20:42.995Z,258.75
2022-07-29T07:21:42.746Z,258.75
2022-07-29T07:22:42.991Z,253.12
2022-07-29T07:23:42.733Z,253.12
2022-07-29T07:24:42.965Z,253.12
2022-07-29T07:26:02.729Z,253.12
2022-07-29T07:26:42.949Z,253.12
2022-07-29T07:27:42.699Z,253.12
2022-07-29T07:28:42.937Z,258.75
2022-07-29T07:29:44.357Z,258.75
2022-07-29T07:30:44.513Z,258.75
2022-07-29T07:31:44.978Z,258.75
2022-07-29T07:32:44.687Z,258.75
2022-07-29T07:33:44.212Z,258.75
2022-07-29T07:34:44.911Z,258.75
2022-07-29T07:36:02.736Z,258.75
2022-07-29T07:36:44.432Z,264.38
2022-07-29T07:37:44.849Z,258.75
2022-07-29T07:38:44.776Z,258.75
2022-07-29T07:39:44.453Z,258.75
2022-07-29T07:40:44.251Z,258.75
2022-07-29T07:41:46.568Z,258.75
2022-07-29T07:42:44.386Z,264.38
2022-07-29T07:43:44.703Z,264.38
2022-07-29T07:45:10.996Z,264.38
2022-07-29T07:46:02.953Z,264.38
2022-07-29T07:46:44.133Z,270.00
2022-07-29T07:47:44.483Z,270.00
2022-07-29T07:48:44.338Z,270.00
2022-07-29T07:49:44.166Z,270.00
2022-07-29T07:50:43.965Z,270.00
2022-07-29T07:51:44.865Z,270.00
2022-07-29T07:52:45.631Z,270.00
2022-07-29T07:53:44.437Z,270.00
2022-07-29T07:54:42.285Z,275.62
2022-07-29T07:56:11.764Z,275.62
2022-07-29T07:56:43.326Z,275.62
2022-07-29T07:57:42.804Z,275.62
2022-07-29T07:58:42.537Z,275.62
2022-07-29T07:59:42.309Z,275.62
2022-07-29T08:00:42.632Z,275.62
2022-07-29T08:01:47.794Z,275.62
2022-07-29T08:02:43.721Z,281.25
2022-07-29T08:03:42.402Z,281.25
2022-07-29T08:04:42.144Z,281.25
2022-07-29T08:06:04.483Z,281.25
2022-07-29T08:06:42.567Z,281.25
2022-07-29T08:07:42.414Z,281.25
2022-07-29T08:08:42.837Z,281.25
2022-07-29T08:09:44.511Z,286.88
2022-07-29T08:10:42.266Z,286.88
2022-07-29T08:11:52.229Z,286.88
2022-07-29T08:12:43.348Z,286.88
2022-07-29T08:13:42.110Z,286.88
2022-07-29T08:14:44.337Z,292.50
2022-07-29T08:16:04.154Z,292.50
2022-07-29T08:16:42.484Z,292.50
2022-07-29T08:17:42.178Z,292.50
2022-07-29T08:18:42.477Z,292.50
2022-07-29T08:19:42.206Z,292.50
2022-07-29T08:20:42.059Z,292.50
2022-07-29T08:21:42.313Z,298.12
2022-07-29T08:22:42.150Z,298.12
2022-07-29T08:23:47.087Z,298.12
2022-07-29T08:24:43.210Z,298.12
2022-07-29T08:26:02.451Z,298.12
2022-07-29T08:26:43.191Z,303.75
2022-07-29T08:27:43.887Z,303.75
2022-07-29T08:28:42.351Z,303.75
2022-07-29T08:29:42.219Z,303.75
2022-07-29T08:30:41.963Z,309.38
2022-07-29T08:31:42.241Z,309.38
2022-07-29T08:32:57.337Z,309.38
2022-07-29T08:33:45.165Z,309.38
2022-07-29T08:34:42.015Z,320.62
2022-07-29T08:36:03.731Z,315.00
2022-07-29T08:36:42.047Z,315.00
2022-07-29T08:37:41.788Z,315.00
2022-07-29T08:38:42.044Z,320.62
2022-07-29T08:39:41.788Z,320.62
2022-07-29T08:40:42.044Z,320.62
2022-07-29T08:41:44.657Z,320.62
2022-07-29T08:42:45.795Z,326.25
2022-07-29T08:43:42.320Z,326.25
2022-07-29T08:44:41.954Z,331.88
2022-07-29T08:46:03.764Z,326.25
2022-07-29T08:46:42.047Z,326.25
2022-07-29T08:47:41.804Z,331.88
2022-07-29T08:48:42.066Z,331.88
2022-07-29T08:49:41.818Z,331.88
2022-07-29T08:50:42.140Z,331.88
2022-07-29T08:51:49.377Z,331.88
2022-07-29T08:52:44.084Z,337.50
2022-07-29T08:53:41.920Z,337.50
2022-07-29T08:54:43.838Z,343.12
2022-07-29T08:56:03.981Z,343.12
2022-07-29T08:56:41.772Z,348.75
2022-07-29T08:57:51.905Z,348.75
2022-07-29T08:58:42.848Z,354.38
2022-07-29T08:59:41.554Z,354.38
2022-07-29T09:00:41.856Z,360.00
2022-07-29T09:01:42.814Z,360.00
2022-07-29T09:02:41.821Z,360.00
2022-07-29T09:03:41.671Z,365.62
2022-07-29T09:04:42.757Z,365.62
2022-07-29T09:06:01.588Z,365.62
2022-07-29T09:06:41.803Z,371.25
2022-07-29T09:07:41.552Z,371.25
2022-07-29T09:08:41.791Z,371.25
2022-07-29T09:09:41.532Z,371.25
2022-07-29T09:10:41.781Z,371.25
2022-07-29T09:11:41.511Z,376.88
2022-07-29T09:12:41.763Z,376.88
2022-07-29T09:13:41.509Z,376.88
2022-07-29T09:14:41.738Z,376.88
2022-07-29T09:16:05.668Z,376.88
2022-07-29T09:16:52.738Z,382.50
2022-07-29T09:17:42.603Z,382.50
2022-07-29T09:18:43.794Z,388.12
2022-07-29T09:19:45.349Z,393.75
2022-07-29T09:20:43.435Z,393.75
2022-07-29T09:21:42.356Z,393.75
2022-07-29T09:22:43.587Z,399.38
2022-07-29T09:23:43.388Z,399.38
2022-07-29T09:24:45.735Z,405.00
2022-07-29T09:26:01.580Z,405.00
2022-07-29T09:26:42.371Z,410.62
2022-07-29T09:27:42.687Z,410.62
2022-07-29T09:28:42.178Z,410.62
2022-07-29T09:29:43.281Z,410.62
2022-07-29T09:30:43.100Z,416.25
2022-07-29T09:31:42.662Z,421.88
2022-07-29T09:32:45.710Z,421.88
2022-07-29T09:33:42.703Z,427.50
2022-07-29T09:34:43.431Z,427.50
2022-07-29T09:36:01.804Z,433.12
2022-07-29T09:36:43.044Z,438.75
2022-07-29T09:37:43.372Z,444.38
2022-07-29T09:38:43.203Z,444.38
2022-07-29T09:39:43.542Z,455.62
2022-07-29T09:40:42.062Z,455.62
2022-07-29T09:41:42.692Z,472.50
2022-07-29T09:42:43.490Z,551.25
2022-07-29T09:43:42.341Z,686.25
2022-07-29T09:44:41.789Z,742.50
2022-07-29T09:46:01.723Z,945.00
2022-07-29T09:46:42.907Z,1080.00
2022-07-29T09:47:43.270Z,1248.75
2022-07-29T09:48:43.135Z,1243.12
2022-07-29T09:49:43.492Z,1209.38
2022-07-29T09:50:42.351Z,1327.50
2022-07-29T09:51:43.196Z,1215.00
2022-07-29T09:52:41.744Z,1158.75
2022-07-29T09:53:43.398Z,1175.62
2022-07-29T09:54:42.695Z,1203.75
2022-07-29T09:56:01.538Z,1254.38
2022-07-29T09:56:42.748Z,1321.88
2022-07-29T09:57:43.227Z,1310.62
2022-07-29T09:58:42.913Z,1215.00
2022-07-29T09:59:50.272Z,1141.88
2022-07-29T10:00:44.057Z,1181.25
2022-07-29T10:01:41.826Z,1288.12
2022-07-29T10:02:43.275Z,1361.25
2022-07-29T10:03:43.130Z,1316.25
2022-07-29T10:04:42.923Z,1254.38
2022-07-29T10:06:01.296Z,1260.00
2022-07-29T10:06:42.557Z,1243.12
2022-07-29T10:07:42.318Z,1192.50
2022-07-29T10:08:44.106Z,1282.50
2022-07-29T10:09:43.008Z,1327.50
2022-07-29T10:10:42.345Z,1327.50
2022-07-29T10:11:49.228Z,1338.75
2022-07-29T10:12:43.542Z,1293.75
2022-07-29T10:13:42.383Z,1276.88
2022-07-29T10:14:43.147Z,1220.62
2022-07-29T10:16:01.081Z,1271.25
2022-07-29T10:16:42.907Z,1389.38
2022-07-29T10:17:42.696Z,1237.50
2022-07-29T10:18:42.498Z,1164.38
2022-07-29T10:19:42.935Z,1355.62
2022-07-29T10:20:43.122Z,1456.88
2022-07-29T10:21:43.060Z,1383.75
2022-07-29T10:22:52.877Z,1333.12
2022-07-29T10:23:47.022Z,1400.62
2022-07-29T10:24:41.697Z,1456.88
2022-07-29T10:26:00.211Z,1417.50
2022-07-29T10:26:40.440Z,1355.62
2022-07-29T10:27:42.526Z,1254.38
2022-07-29T10:28:42.381Z,1316.25
2022-07-29T10:29:41.805Z,1434.38
2022-07-29T10:30:43.028Z,1389.38
2022-07-29T10:31:44.110Z,1333.12
2022-07-29T10:32:42.724Z,1383.75
2022-07-29T10:33:43.068Z,1445.62
2022-07-29T10:34:41.896Z,1473.75
2022-07-29T10:36:00.718Z,1558.12
2022-07-29T10:36:41.658Z,1608.75
2022-07-29T10:37:45.914Z,1580.62
2022-07-29T10:38:46.091Z,1524.38
2022-07-29T10:39:48.979Z,1501.88
2022-07-29T10:40:43.916Z,1501.88
2022-07-29T10:41:44.234Z,1524.38
2022-07-29T10:42:42.506Z,1558.12
2022-07-29T10:43:42.525Z,1468.12
2022-07-29T10:44:42.721Z,1406.25
2022-07-29T10:46:01.126Z,1591.88
2022-07-29T10:46:42.882Z,1625.62
2022-07-29T10:47:41.076Z,1552.50
2022-07-29T10:48:41.778Z,1558.12
2022-07-29T10:49:42.704Z,1558.12
2022-07-29T10:50:43.988Z,1591.88
2022-07-29T10:51:42.008Z,1614.38
2022-07-29T10:52:42.744Z,1575.00
2022-07-29T10:53:42.497Z,1501.88
2022-07-29T10:54:43.765Z,1507.50
2022-07-29T10:56:00.607Z,1485.00
2022-07-29T10:56:41.327Z,1473.75
2022-07-29T10:57:53.569Z,1507.50
2022-07-29T10:58:43.489Z,1440.00
2022-07-29T10:59:43.854Z,1350.00
2022-07-29T11:00:42.641Z,1395.00
2022-07-29T11:01:46.407Z,1456.88
2022-07-29T11:02:43.807Z,1501.88
2022-07-29T11:03:41.329Z,1513.12
2022-07-29T11:04:43.392Z,1591.88
2022-07-29T11:06:00.730Z,1558.12
2022-07-29T11:06:42.815Z,1507.50
2022-07-29T11:07:46.456Z,1468.12
2022-07-29T11:08:41.651Z,1490.62
2022-07-29T11:09:42.439Z,1496.25
2022-07-29T11:10:42.222Z,1513.12
2022-07-29T11:11:44.032Z,1541.25
2022-07-29T11:12:43.369Z,1513.12
2022-07-29T11:13:41.728Z,1563.75
2022-07-29T11:14:42.513Z,1513.12
2022-07-29T11:16:01.036Z,1513.12
2022-07-29T11:16:40.189Z,1462.50
2022-07-29T11:17:47.057Z,1400.62
2022-07-29T11:18:41.202Z,1423.12
2022-07-29T11:19:40.439Z,1479.38
2022-07-29T11:20:40.181Z,1451.25
2022-07-29T11:22:43.022Z,1530.00
2022-07-29T11:23:42.872Z,1552.50
2022-07-29T11:24:50.145Z,1136.25
2022-07-29T11:26:02.290Z,365.62
2022-07-29T11:26:40.089Z,303.75
2022-07-29T11:27:40.401Z,298.12
2022-07-29T11:28:40.092Z,320.62
2022-07-29T11:29:40.331Z,365.62
2022-07-29T11:30:40.080Z,320.62
2022-07-29T11:31:40.348Z,376.88
2022-07-29T11:32:40.079Z,388.12
2022-07-29T11:33:56.125Z,354.38
2022-07-29T11:34:41.074Z,573.75
2022-07-29T11:36:03.311Z,388.12
2022-07-29T11:36:40.101Z,303.75
2022-07-29T11:37:42.633Z,281.25
2022-07-29T11:38:41.635Z,275.62
2022-07-29T11:39:40.327Z,275.62
2022-07-29T11:40:40.076Z,275.62
2022-07-29T11:41:40.318Z,270.00
2022-07-29T11:42:41.824Z,270.00
2022-07-29T11:43:40.314Z,270.00
2022-07-29T11:44:40.066Z,275.62
2022-07-29T11:46:02.354Z,258.75
2022-07-29T11:46:40.150Z,258.75
2022-07-29T11:47:40.052Z,275.62
2022-07-29T11:48:40.189Z,258.75
2022-07-29T11:49:39.902Z,258.75
2022-07-29T11:50:41.162Z,253.12
2022-07-29T11:51:56.785Z,253.12
2022-07-29T11:52:49.581Z,258.75
2022-07-29T11:53:40.884Z,258.75
2022-07-29T11:54:58.365Z,253.12
2022-07-29T11:56:03.360Z,253.12
2022-07-29T11:56:40.159Z,253.12
2022-07-29T11:57:39.961Z,253.12
2022-07-29T11:58:40.131Z,247.50
2022-07-29T11:59:39.876Z,247.50
2022-07-29T12:00:40.106Z,253.12
2022-07-29T12:01:39.854Z,247.50
2022-07-29T12:02:40.895Z,241.88
2022-07-29T12:03:39.895Z,241.88
2022-07-29T12:04:40.081Z,236.25
2022-07-29T12:06:01.805Z,230.62
2022-07-29T12:06:40.087Z,230.62
2022-07-29T12:07:41.293Z,225.00
2022-07-29T12:08:41.084Z,219.38
2022-07-29T12:09:40.317Z,219.38
2022-07-29T12:10:40.069Z,219.38
2022-07-29T12:11:39.869Z,219.38
2022-07-29T12:12:40.042Z,219.38
2022-07-29T12:13:39.786Z,219.38
2022-07-29T12:14:40.018Z,213.75
2022-07-29T12:16:02.375Z,213.75
2022-07-29T12:16:39.632Z,208.12
2022-07-29T12:17:39.839Z,208.12
2022-07-29T12:18:39.583Z,202.50
2022-07-29T12:19:39.834Z,202.50
2022-07-29T12:20:39.567Z,202.50
2022-07-29T12:21:39.803Z,196.88
2022-07-29T12:22:40.552Z,196.88
2022-07-29T12:23:39.783Z,196.88
2022-07-29T12:24:39.550Z,196.88
2022-07-29T12:26:00.905Z,191.25
2022-07-29T12:26:40.436Z,191.25
2022-07-29T12:27:40.255Z,191.25
2022-07-29T12:28:39.872Z,191.25
2022-07-29T12:29:40.234Z,185.62
2022-07-29T12:30:41.622Z,185.62
2022-07-29T12:31:43.806Z,185.62
2022-07-29T12:32:40.727Z,180.00
2022-07-29T12:33:39.394Z,180.00
2022-07-29T12:34:39.639Z,180.00
2022-07-29T12:36:06.961Z,180.00
2022-07-29T12:36:40.686Z,174.38
2022-07-29T12:37:41.226Z,174.38
2022-07-29T12:38:39.649Z,174.38
2022-07-29T12:39:39.405Z,174.38
2022-07-29T12:40:39.714Z,174.38
2022-07-29T12:41:39.387Z,174.38
2022-07-29T12:42:39.634Z,174.38
2022-07-29T12:43:39.362Z,174.38
2022-07-29T12:44:39.613Z,174.38
2022-07-29T12:46:01.494Z,174.38
2022-07-29T12:46:39.775Z,174.38
2022-07-29T12:47:39.367Z,174.38
2022-07-29T12:48:39.704Z,174.38